createdAt,value
2022-08-01T00:00:13.135Z,1.30
2022-08-01T00:02:47.162Z,1.20
2022-08-01T00:05:14.534Z,1.42
2022-08-01T00:07:41.841Z,1.40
2022-08-01T00:10:15.188Z,1.27
2022-08-01T00:12:43.621Z,1.55
2022-08-01T00:15:12.847Z,1.40
2022-08-01T00:17:46.490Z,1.60
2022-08-01T00:20:14.940Z,1.40
2022-08-01T00:22:42.272Z,1.60
2022-08-01T00:25:10.031Z,1.48
2022-08-01T00:27:41.026Z,1.85
2022-08-01T00:30:14.623Z,1.50
2022-08-01T00:32:43.640Z,1.55
2022-08-01T00:35:15.976Z,1.70
2022-08-01T00:37:47.380Z,1.70
2022-08-01T00:40:16.158Z,1.67
2022-08-01T00:42:45.805Z,1.67
2022-08-01T00:45:13.076Z,1.83
2022-08-01T00:47:40.581Z,1.70
2022-08-01T00:50:08.907Z,1.80
2022-08-01T00:52:36.797Z,1.85
2022-08-01T00:55:04.729Z,1.77
2022-08-01T00:58:03.407Z,1.87
2022-08-01T01:00:20.419Z,1.70
2022-08-01T01:02:54.589Z,2.05
2022-08-01T01:05:22.481Z,1.70
2022-08-01T01:08:03.439Z,1.92
2022-08-01T01:10:41.313Z,1.50
2022-08-01T01:13:21.489Z,1.55
2022-08-01T01:15:56.166Z,1.40
2022-08-01T01:18:32.987Z,1.83
2022-08-01T01:21:22.553Z,1.90
2022-08-01T01:24:19.864Z,2.05
2022-08-01T01:26:52.744Z,1.58
2022-08-01T01:29:58.580Z,2.05
2022-08-01T01:32:35.315Z,1.98
2022-08-01T01:35:09.996Z,1.75
2022-08-01T01:37:42.628Z,2.00
2022-08-01T01:40:13.409Z,1.70
2022-08-01T01:42:43.208Z,2.08
2022-08-01T01:45:15.848Z,2.08
2022-08-01T01:47:54.453Z,2.47
2022-08-01T01:50:23.341Z,2.10
2022-08-01T01:52:51.938Z,2.40
2022-08-01T01:55:27.137Z,2.15
2022-08-01T01:57:56.458Z,2.22
2022-08-01T02:00:24.748Z,2.17
2022-08-01T02:02:57.353Z,1.95
2022-08-01T02:05:26.130Z,2.15
2022-08-01T02:07:59.684Z,2.05
2022-08-01T02:10:29.324Z,2.22
2022-08-01T02:15:32.289Z,2.10
2022-08-01T02:18:02.010Z,1.88
2022-08-01T02:20:31.334Z,2.20
2022-08-01T02:23:08.296Z,2.60
2022-08-01T02:26:11.105Z,2.13
2022-08-01T02:28:42.981Z,2.28
2022-08-01T02:31:15.193Z,2.22
2022-08-01T02:33:51.241Z,1.95
2022-08-01T02:36:30.853Z,2.00
2022-08-01T02:39:03.847Z,2.33
2022-08-01T02:41:40.589Z,2.20
2022-08-01T02:44:10.434Z,2.03
2022-08-01T02:46:41.682Z,2.08
2022-08-01T02:49:11.266Z,2.13
2022-08-01T02:51:49.198Z,2.80
2022-08-01T02:54:19.323Z,2.47
2022-08-01T02:56:57.038Z,2.03
2022-08-01T02:59:28.454Z,2.20
2022-08-01T03:02:02.917Z,2.40
2022-08-01T03:04:33.413Z,2.25
2022-08-01T03:07:11.950Z,2.78
2022-08-01T03:09:41.705Z,2.53
2022-08-01T03:12:17.389Z,2.60
2022-08-01T03:14:47.583Z,2.95
2022-08-01T03:17:21.191Z,2.38
2022-08-01T03:19:50.762Z,2.20
2022-08-01T03:22:19.756Z,2.53
2022-08-01T03:24:50.886Z,2.72
2022-08-01T03:27:21.457Z,2.75
2022-08-01T03:29:57.918Z,2.85
2022-08-01T03:32:29.020Z,2.92
2022-08-01T03:34:56.711Z,2.72
2022-08-01T03:38:14.295Z,2.60
2022-08-01T03:40:42.315Z,2.78
2022-08-01T03:43:26.749Z,2.83
2022-08-01T03:45:58.805Z,3.00
2022-08-01T03:48:30.666Z,3.03
2022-08-01T03:51:00.171Z,2.90
2022-08-01T03:53:31.713Z,3.08
2022-08-01T03:56:03.662Z,2.92
2022-08-01T03:58:31.660Z,2.97
2022-08-01T04:00:59.777Z,2.90
2022-08-01T04:03:27.444Z,3.75
2022-08-01T04:05:54.862Z,3.50
2022-08-01T04:08:22.171Z,3.28
2022-08-01T04:10:56.410Z,3.75
2022-08-01T04:13:24.013Z,3.70
2022-08-01T04:15:51.312Z,4.13
2022-08-01T04:18:18.499Z,4.00
2022-08-01T04:20:47.676Z,4.13
2022-08-01T04:23:21.669Z,4.00
2022-08-01T04:25:51.117Z,3.80
2022-08-01T04:28:20.675Z,3.67
2022-08-01T04:30:52.726Z,4.45
2022-08-01T04:33:21.197Z,4.18
2022-08-01T04:36:02.019Z,4.23
2022-08-01T04:38:37.508Z,4.53
2022-08-01T04:41:08.691Z,4.45
2022-08-01T04:43:37.959Z,4.40
2022-08-01T04:46:10.657Z,5.15
2022-08-01T04:48:39.628Z,4.57
2022-08-01T04:51:16.008Z,4.95
2022-08-01T04:53:44.613Z,5.38
2022-08-01T04:56:13.963Z,6.00
2022-08-01T05:01:14.987Z,5.43
2022-08-01T05:03:42.396Z,5.40
2022-08-01T05:06:19.169Z,5.55
2022-08-01T05:08:51.792Z,5.30
2022-08-01T05:11:18.994Z,5.85
2022-08-01T05:13:49.745Z,5.55
2022-08-01T05:16:17.865Z,5.25
2022-08-01T05:18:45.119Z,5.18
2022-08-01T05:21:14.905Z,5.88
2022-08-01T05:23:43.574Z,6.15
2022-08-01T05:26:14.554Z,5.43
2022-08-01T05:28:42.693Z,5.35
2022-08-01T05:31:09.784Z,6.55
2022-08-01T05:33:36.856Z,5.47
2022-08-01T05:36:04.321Z,6.20
2022-08-01T05:38:34.464Z,6.75
2022-08-01T05:41:01.938Z,6.32
2022-08-01T05:43:29.392Z,6.32
2022-08-01T05:45:56.877Z,5.47
2022-08-01T05:48:24.015Z,5.47
2022-08-01T05:50:54.650Z,5.82
2022-08-01T05:53:25.412Z,6.40
2022-08-01T05:55:52.393Z,6.55
2022-08-01T05:58:19.639Z,6.70
2022-08-01T06:00:46.828Z,8.52
2022-08-01T06:03:15.243Z,9.88
2022-08-01T06:05:42.340Z,8.60
2022-08-01T06:08:09.678Z,9.02
2022-08-01T06:10:40.712Z,9.07
2022-08-01T06:13:08.046Z,9.68
2022-08-01T06:15:35.409Z,9.63
2022-08-01T06:18:02.518Z,9.15
2022-08-01T06:20:29.742Z,8.02
2022-08-01T06:22:56.980Z,8.68
2022-08-01T06:25:34.265Z,7.97
2022-08-01T06:28:01.817Z,7.38
2022-08-01T06:30:29.101Z,7.90
2022-08-01T06:33:05.746Z,8.65
2022-08-01T06:35:32.873Z,9.45
2022-08-01T06:38:00.009Z,8.45
2022-08-01T06:40:27.586Z,8.15
2022-08-01T06:42:54.766Z,7.68
2022-08-01T06:45:23.315Z,8.25
2022-08-01T06:47:51.105Z,8.32
2022-08-01T06:50:18.589Z,8.50
2022-08-01T06:52:47.144Z,8.10
2022-08-01T06:55:14.440Z,7.15
2022-08-01T06:57:54.193Z,7.22
2022-08-01T07:00:23.575Z,7.97
2022-08-01T07:03:02.877Z,7.07
2022-08-01T07:05:31.972Z,7.22
2022-08-01T07:08:00.222Z,7.40
2022-08-01T07:10:27.417Z,6.70
2022-08-01T07:12:54.498Z,7.15
2022-08-01T07:15:27.155Z,6.43
2022-08-01T07:17:54.434Z,6.55
2022-08-01T07:20:26.974Z,6.80
2022-08-01T07:22:54.310Z,7.10
2022-08-01T07:27:50.756Z,7.25
2022-08-01T07:30:19.661Z,6.43
2022-08-01T07:32:46.956Z,7.35
2022-08-01T07:35:14.464Z,7.57
2022-08-01T07:37:46.297Z,7.57
2022-08-01T07:40:19.002Z,7.88
2022-08-01T07:42:47.658Z,7.60
2022-08-01T07:45:16.102Z,8.27
2022-08-01T07:47:47.941Z,7.43
2022-08-01T07:50:15.100Z,7.13
2022-08-01T07:52:42.650Z,6.68
2022-08-01T07:55:11.827Z,6.90
2022-08-01T07:57:43.997Z,6.80
2022-08-01T08:00:11.673Z,7.30
2022-08-01T08:02:41.221Z,7.10
2022-08-01T08:05:14.135Z,6.50
2022-08-01T08:07:41.565Z,6.70
2022-08-01T08:10:09.469Z,7.25
2022-08-01T08:12:36.449Z,6.53
2022-08-01T08:15:06.604Z,6.30
2022-08-01T08:17:35.905Z,5.93
2022-08-01T08:20:10.021Z,6.75
2022-08-01T08:22:37.593Z,6.82
2022-08-01T08:25:05.609Z,7.35
2022-08-01T08:27:35.436Z,7.53
2022-08-01T08:30:09.855Z,6.18
2022-08-01T08:32:37.141Z,5.95
2022-08-01T08:35:05.863Z,6.93
2022-08-01T08:37:39.075Z,6.68
2022-08-01T08:40:16.581Z,6.55
2022-08-01T08:42:48.444Z,5.50
2022-08-01T08:45:15.657Z,6.05
2022-08-01T08:47:44.421Z,6.97
2022-08-01T08:50:14.805Z,7.43
2022-08-01T08:52:43.512Z,5.78
2022-08-01T08:55:12.393Z,6.60
2022-08-01T08:57:41.505Z,6.03
2022-08-01T09:00:14.122Z,4.93
2022-08-01T09:02:47.590Z,4.10
2022-08-01T09:05:19.497Z,4.20
2022-08-01T09:07:47.246Z,4.25
2022-08-01T09:10:14.410Z,4.78
2022-08-01T09:13:03.080Z,5.55
2022-08-01T09:15:41.074Z,4.25
2022-08-01T09:18:34.859Z,4.07
2022-08-01T09:21:15.275Z,4.88
2022-08-01T09:23:54.215Z,5.15
2022-08-01T09:29:05.916Z,4.57
2022-08-01T09:31:47.677Z,4.72
2022-08-01T09:34:19.741Z,4.40
2022-08-01T09:36:56.622Z,5.35
2022-08-01T09:39:32.018Z,5.13
2022-08-01T09:42:01.622Z,5.32
2022-08-01T09:44:44.746Z,4.80
2022-08-01T09:47:15.506Z,4.78
2022-08-01T09:49:50.579Z,4.50
2022-08-01T09:52:29.122Z,5.00
2022-08-01T09:55:01.905Z,4.90
2022-08-01T09:57:30.322Z,4.93
2022-08-01T10:00:01.271Z,4.50
2022-08-01T10:02:37.592Z,5.20
2022-08-01T10:05:08.260Z,4.78
2022-08-01T10:08:07.781Z,4.82
2022-08-01T10:10:37.435Z,4.60
2022-08-01T10:15:37.450Z,4.15
2022-08-01T10:18:16.111Z,3.80
2022-08-01T10:20:44.503Z,4.30
2022-08-01T10:23:12.716Z,3.97
2022-08-01T10:25:46.949Z,3.45
2022-08-01T10:28:17.824Z,3.80
2022-08-01T10:30:55.476Z,4.03
2022-08-01T10:33:50.900Z,4.97
2022-08-01T10:36:11.929Z,4.22
2022-08-01T10:38:40.419Z,4.43
2022-08-01T10:41:08.797Z,4.20
2022-08-01T10:43:36.999Z,3.75
2022-08-01T10:46:06.965Z,3.67
2022-08-01T10:48:47.897Z,4.13
2022-08-01T10:51:17.837Z,3.70
2022-08-01T10:53:54.338Z,4.22
2022-08-01T10:56:46.759Z,3.90
2022-08-01T10:59:49.362Z,3.75
2022-08-01T11:02:09.756Z,3.78
2022-08-01T11:04:46.502Z,3.85
2022-08-01T11:07:25.816Z,4.07
2022-08-01T11:10:16.643Z,3.92
2022-08-01T11:12:44.270Z,3.92
2022-08-01T11:15:11.585Z,4.72
2022-08-01T11:17:49.108Z,4.70
2022-08-01T11:20:33.627Z,4.50
2022-08-01T11:23:12.722Z,3.80
2022-08-01T11:26:05.146Z,3.58
2022-08-01T11:28:41.275Z,3.75
2022-08-01T11:33:49.593Z,3.72
2022-08-01T11:36:16.989Z,3.35
2022-08-01T11:38:51.197Z,3.78
2022-08-01T11:41:36.849Z,3.90
2022-08-01T11:44:30.527Z,3.85
2022-08-01T11:47:09.146Z,3.30
2022-08-01T11:49:37.335Z,3.90
2022-08-01T11:52:16.853Z,3.58
2022-08-01T11:54:46.302Z,3.45
2022-08-01T11:57:23.472Z,3.85
2022-08-01T12:00:03.969Z,3.78
2022-08-01T12:02:35.022Z,3.35
2022-08-01T12:05:11.684Z,3.40
2022-08-01T12:07:41.616Z,3.30
2022-08-01T12:10:15.061Z,3.60
2022-08-01T12:12:49.687Z,2.95
2022-08-01T12:15:19.635Z,3.40
2022-08-01T12:17:58.308Z,3.20
2022-08-01T12:20:31.963Z,3.20
2022-08-01T12:23:08.383Z,2.60
2022-08-01T12:25:36.516Z,3.15
2022-08-01T12:28:05.785Z,2.92
2022-08-01T12:30:39.859Z,2.80
2022-08-01T12:33:09.612Z,2.95
2022-08-01T12:35:41.669Z,2.35
2022-08-01T12:38:18.717Z,2.80
2022-08-01T12:40:51.693Z,3.13
2022-08-01T12:43:28.596Z,3.38
2022-08-01T12:45:59.942Z,2.50
2022-08-01T12:48:32.434Z,2.75
2022-08-01T12:51:02.017Z,3.35
2022-08-01T12:53:41.142Z,2.90
2022-08-01T12:58:37.647Z,2.92
2022-08-01T13:01:14.161Z,2.83
2022-08-01T13:03:58.502Z,3.20
2022-08-01T13:06:31.764Z,2.63
2022-08-01T13:09:14.243Z,2.95
2022-08-01T13:12:09.612Z,3.45
2022-08-01T13:14:41.702Z,3.22
2022-08-01T13:17:09.342Z,3.35
2022-08-01T13:19:48.063Z,3.30
2022-08-01T13:22:18.324Z,3.65
2022-08-01T13:25:10.482Z,3.25
2022-08-01T13:27:53.750Z,2.80
2022-08-01T13:30:25.892Z,2.53
2022-08-01T13:33:11.385Z,2.25
2022-08-01T13:35:38.428Z,2.67
2022-08-01T13:38:09.369Z,2.42
2022-08-01T13:40:36.614Z,2.15
2022-08-01T13:43:03.756Z,2.35
2022-08-01T13:45:30.865Z,2.70
2022-08-01T13:48:12.929Z,2.10
2022-08-01T13:51:13.527Z,2.30
2022-08-01T13:53:58.417Z,2.17
2022-08-01T13:56:28.958Z,1.90
2022-08-01T13:58:56.534Z,1.98
2022-08-01T14:01:24.614Z,2.05
2022-08-01T14:03:52.454Z,1.80
2022-08-01T14:06:23.092Z,1.85
2022-08-01T14:08:50.789Z,1.50
2022-08-01T14:11:24.412Z,1.70
2022-08-01T14:13:54.873Z,1.60
2022-08-01T14:16:40.497Z,1.75
2022-08-01T14:19:07.894Z,1.70
2022-08-01T14:21:35.086Z,1.75
2022-08-01T14:24:02.153Z,1.75
2022-08-01T14:26:29.407Z,1.48
2022-08-01T14:29:04.234Z,2.22
2022-08-01T14:31:34.667Z,2.03
2022-08-01T14:34:02.425Z,1.85
2022-08-01T14:36:39.398Z,1.80
2022-08-01T14:39:15.287Z,1.77
2022-08-01T14:41:49.084Z,1.77
2022-08-01T14:44:25.270Z,1.48
2022-08-01T14:46:59.985Z,1.40
2022-08-01T14:49:38.135Z,1.60
2022-08-01T14:52:31.131Z,1.48
2022-08-01T14:54:58.323Z,1.67
2022-08-01T14:57:25.758Z,1.60
2022-08-01T14:59:57.206Z,1.70
2022-08-01T15:02:28.187Z,1.60
2022-08-01T15:04:55.637Z,1.50
2022-08-01T15:07:22.825Z,1.60
2022-08-01T15:09:50.648Z,1.45
2022-08-01T15:12:49.830Z,1.33
2022-08-01T15:15:26.050Z,1.48
2022-08-01T15:17:54.322Z,1.75
2022-08-01T15:20:25.505Z,1.35
2022-08-01T15:22:53.693Z,1.60
2022-08-01T15:25:24.585Z,1.40
2022-08-01T15:27:52.153Z,1.50
2022-08-01T15:30:23.689Z,1.50
2022-08-01T15:32:54.680Z,1.60
2022-08-01T15:35:21.927Z,1.75
2022-08-01T15:37:49.081Z,1.73
2022-08-01T15:40:17.226Z,1.77
2022-08-01T15:42:50.891Z,1.80
2022-08-01T15:45:47.332Z,1.85
2022-08-01T15:48:09.456Z,1.58
2022-08-01T15:50:51.445Z,1.58
2022-08-01T15:53:23.539Z,1.60
2022-08-01T15:55:52.318Z,1.70
2022-08-01T15:58:20.347Z,1.63
2022-08-01T16:00:52.941Z,1.70
2022-08-01T16:03:21.802Z,1.55
2022-08-01T16:05:50.435Z,1.60
2022-08-01T16:10:47.186Z,2.38
2022-08-01T16:13:18.733Z,1.77
2022-08-01T16:15:53.417Z,1.83
2022-08-01T16:18:23.372Z,1.73
2022-08-01T16:20:50.485Z,1.73
2022-08-01T16:23:17.621Z,1.80
2022-08-01T16:25:51.793Z,1.48
2022-08-01T16:28:21.798Z,1.77
2022-08-01T16:31:10.112Z,1.80
2022-08-01T16:33:58.190Z,1.85
2022-08-01T16:39:14.193Z,1.60
2022-08-01T16:41:55.136Z,1.67
2022-08-01T16:44:28.576Z,1.90
2022-08-01T16:47:03.609Z,1.90
2022-08-01T16:49:32.009Z,1.50
2022-08-01T16:52:07.333Z,1.83
2022-08-01T16:54:53.210Z,1.50
2022-08-01T16:57:20.424Z,1.60
2022-08-01T16:59:47.658Z,1.65
2022-08-01T17:02:15.608Z,1.50
2022-08-01T17:04:42.929Z,1.75
2022-08-01T17:07:15.251Z,1.80
2022-08-01T17:09:57.553Z,1.80
2022-08-01T17:12:24.840Z,1.75
2022-08-01T17:15:10.924Z,1.80
2022-08-01T17:17:43.913Z,2.00
2022-08-01T17:20:29.632Z,2.15
2022-08-01T17:22:57.143Z,2.38
2022-08-01T17:25:24.581Z,2.10
2022-08-01T17:27:58.653Z,2.28
2022-08-01T17:30:44.238Z,2.70
2022-08-01T17:33:11.540Z,2.42
2022-08-01T17:35:38.740Z,2.30
2022-08-01T17:38:06.001Z,2.22
2022-08-01T17:40:40.560Z,1.75
2022-08-01T17:43:08.868Z,2.30
2022-08-01T17:45:47.633Z,2.05
2022-08-01T17:48:24.096Z,1.88
2022-08-01T17:51:10.056Z,2.30
2022-08-01T17:53:37.333Z,2.17
2022-08-01T17:56:23.679Z,2.30
2022-08-01T17:58:52.585Z,1.88
2022-08-01T18:01:38.020Z,2.13
2022-08-01T18:04:20.717Z,1.88
2022-08-01T18:06:58.107Z,2.33
2022-08-01T18:09:32.672Z,1.80
2022-08-01T18:12:02.027Z,1.80
2022-08-01T18:14:39.985Z,1.80
2022-08-01T18:17:11.161Z,1.70
2022-08-01T18:19:39.882Z,1.60
2022-08-01T18:22:31.517Z,2.20
2022-08-01T18:25:08.350Z,2.10
2022-08-01T18:28:25.778Z,1.75
2022-08-01T18:30:23.773Z,1.50
2022-08-01T18:32:50.996Z,1.50
2022-08-01T18:35:18.392Z,1.63
2022-08-01T18:37:57.100Z,1.70
2022-08-01T18:40:34.980Z,1.60
2022-08-01T18:43:20.618Z,1.45
2022-08-01T18:45:57.676Z,1.55
2022-08-01T18:48:28.891Z,1.60
2022-08-01T18:50:56.203Z,1.50
2022-08-01T18:53:26.213Z,1.70
2022-08-01T18:55:53.433Z,1.42
2022-08-01T18:58:39.894Z,1.55
2022-08-01T19:01:07.219Z,1.38
2022-08-01T19:03:42.526Z,1.38
2022-08-01T19:06:14.355Z,1.75
2022-08-01T19:08:41.704Z,1.40
2022-08-01T19:11:08.856Z,1.40
2022-08-01T19:13:44.279Z,1.40
2022-08-01T19:16:11.710Z,1.40
2022-08-01T19:18:57.650Z,1.50
2022-08-01T19:21:27.845Z,1.60
2022-08-01T19:24:22.737Z,1.50
2022-08-01T19:26:53.781Z,1.45
2022-08-01T19:29:24.114Z,2.08
2022-08-01T19:32:08.136Z,1.63
2022-08-01T19:34:39.825Z,1.60
2022-08-01T19:37:10.064Z,1.38
2022-08-01T19:39:51.787Z,1.42
2022-08-01T19:42:20.357Z,1.45
2022-08-01T19:44:48.929Z,2.03
2022-08-01T19:47:17.203Z,1.73
2022-08-01T19:50:05.038Z,1.27
2022-08-01T19:52:36.486Z,1.58
2022-08-01T19:55:10.290Z,1.40
2022-08-01T19:58:16.959Z,1.38
2022-08-01T20:03:05.215Z,1.83
2022-08-01T20:05:34.224Z,1.50
2022-08-01T20:08:09.693Z,1.40
2022-08-01T20:10:56.673Z,1.50
2022-08-01T20:13:24.121Z,1.60
2022-08-01T20:15:53.113Z,1.58
2022-08-01T20:18:20.436Z,1.67
2022-08-01T20:20:52.442Z,1.52
2022-08-01T20:23:24.674Z,1.60
2022-08-01T20:25:54.864Z,1.55
2022-08-01T20:28:30.606Z,1.38
2022-08-01T20:31:05.286Z,1.80
2022-08-01T20:33:44.886Z,1.67
2022-08-01T20:36:25.806Z,1.52
2022-08-01T20:38:55.195Z,1.95
2022-08-01T20:41:25.325Z,2.17
2022-08-01T20:43:57.533Z,1.55
2022-08-01T20:46:28.699Z,1.60
2022-08-01T20:48:58.304Z,1.88
2022-08-01T20:53:56.141Z,1.58
2022-08-01T20:56:29.852Z,1.60
2022-08-01T20:59:39.887Z,1.48
2022-08-01T21:02:35.351Z,1.60
2022-08-01T21:05:07.517Z,1.85
2022-08-01T21:07:58.997Z,1.77
2022-08-01T21:10:28.817Z,1.83
2022-08-01T21:13:05.654Z,1.90
2022-08-01T21:16:07.433Z,1.90
2022-08-01T21:22:01.266Z,1.88
2022-08-01T21:24:41.314Z,1.52
2022-08-01T21:27:09.563Z,1.60
2022-08-01T21:29:56.518Z,1.80
2022-08-01T21:32:29.621Z,1.83
2022-08-01T21:34:56.946Z,1.73
2022-08-01T21:37:24.427Z,2.10
2022-08-01T21:39:55.019Z,1.85
2022-08-01T21:42:37.658Z,1.90
2022-08-01T21:45:24.992Z,1.98
2022-08-01T21:47:53.242Z,1.92
2022-08-01T21:50:21.161Z,2.00
2022-08-01T21:52:54.078Z,1.95
2022-08-01T21:55:34.929Z,1.70
2022-08-01T21:58:24.809Z,1.70
2022-08-01T22:01:03.252Z,1.83
2022-08-01T22:06:09.680Z,2.17
2022-08-01T22:08:48.602Z,2.10
2022-08-01T22:11:20.776Z,2.50
2022-08-01T22:13:53.646Z,1.85
2022-08-01T22:16:31.441Z,1.65
2022-08-01T22:19:01.610Z,1.55
2022-08-01T22:21:37.655Z,2.00
2022-08-01T22:24:11.938Z,1.88
2022-08-01T22:26:41.431Z,1.92
2022-08-01T22:31:38.104Z,2.00
2022-08-01T22:34:07.085Z,2.20
2022-08-01T22:36:43.996Z,2.23
2022-08-01T22:39:26.362Z,1.80
2022-08-01T22:42:01.280Z,1.90
2022-08-01T22:45:19.974Z,2.10
2022-08-01T22:47:54.871Z,2.10
2022-08-01T22:50:39.543Z,1.80
2022-08-01T22:53:26.429Z,1.92
2022-08-01T22:55:58.941Z,2.28
2022-08-01T22:58:40.163Z,2.25
2022-08-01T23:01:12.596Z,2.35
2022-08-01T23:04:11.868Z,1.90
2022-08-01T23:06:50.812Z,2.08
2022-08-01T23:09:20.310Z,2.30
2022-08-01T23:11:53.051Z,2.35
2022-08-01T23:14:27.214Z,2.20
2022-08-01T23:16:56.986Z,2.75
2022-08-01T23:19:27.783Z,2.20
2022-08-01T23:21:55.537Z,2.35
2022-08-01T23:24:33.639Z,2.22
2022-08-01T23:27:54.424Z,2.17
2022-08-01T23:30:14.250Z,2.65
2022-08-01T23:33:00.215Z,2.70
2022-08-01T23:35:29.073Z,2.03
2022-08-01T23:38:02.032Z,2.40
2022-08-01T23:40:31.986Z,2.53
2022-08-01T23:43:00.273Z,2.25
2022-08-01T23:48:25.449Z,2.40
2022-08-01T23:50:58.657Z,2.40
2022-08-01T23:53:44.050Z,2.50
2022-08-01T23:56:25.425Z,2.65
2022-08-01T23:59:02.838Z,2.40
